Time,TemperatureF,DewpointF,PressureIn,WindDirection,WindDirectionDegrees,WindSpeedMPH,WindSpeedGustMPH,Humidity,HourlyPrecipIn,Conditions,Clouds,dailyrainin,SolarRadiationWatts/m^2,SoftwareType,DateUTC
2019-06-25 00:04:22,79.4,67,29.87,SSW,200,0.1,1.2,66,0,BKN,FEW,0,0.00,WeatherDisplay:10.37,2019-06-24 21:04:22,
2019-06-25 00:09:20,79.4,67,29.87,SSW,201,0,1.2,66,0,BKN,FEW,0,0.00,WeatherDisplay:10.37,2019-06-24 21:09:20,
2019-06-25 00:14:31,79.3,67,29.86,SSW,202,0.5,2.3,66,0,BKN,FEW,0,0.00,WeatherDisplay:10.37,2019-06-24 21:14:31,
2019-06-25 00:19:20,79.3,67,29.86,SW,221,1.8,3.5,66,0,BKN,FEW,0,0.00,WeatherDisplay:10.37,2019-06-24 21:19:20,
2019-06-25 00:24:30,79.4,67,29.86,SW,220,0.6,2.3,66,0,BKN,FEW,0,0.00,WeatherDisplay:10.37,2019-06-24 21:24:30,
2019-06-25 00:29:30,79.4,67,29.86,SE,126,2.3,4.6,66,0,BKN,FEW,0,0.00,WeatherDisplay:10.37,2019-06-24 21:29:30,
2019-06-25 00:34:18,79.4,66.6,29.86,SSW,198,4.4,6,65,0,BKN,FEW,0,0.00,WeatherDisplay:10.37,2019-06-24 21:34:18,
2019-06-25 00:39:30,79.4,66.6,29.86,SW,222,1.4,3.5,65,0,BKN,FEW,0,0.00,WeatherDisplay:10.37,2019-06-24 21:39:30,
2019-06-25 00:44:29,79.3,67,29.86,SSW,192,2.7,3.5,66,0,BKN,FEW,0,0.00,WeatherDisplay:10.37,2019-06-24 21:44:29,
2019-06-25 00:49:28,79.1,67.2,29.86,SSW,198,1.5,3.5,67,0,BKN,FEW,0,0.00,WeatherDisplay:10.37,2019-06-24 21:49:28,
2019-06-25 00:54:28,79.1,67.2,29.86,SSW,198,1.9,3.5,67,0,BKN,FEW,0,0.00,WeatherDisplay:10.37,2019-06-24 21:54:28,
2019-06-25 00:59:28,78.9,67,29.86,SSW,198,1.5,3,67,0,BKN,FEW,0,0.00,WeatherDisplay:10.37,2019-06-24 21:59:28,
2019-06-25 01:04:20,78.8,67.3,29.86,South,191,1.2,3.5,68,0,BKN,FEW,0,0.00,WeatherDisplay:10.37,2019-06-24 22:04:20,
2019-06-25 01:09:33,78.7,67.2,29.86,SSW,192,1.4,3.5,68,0,BKN,FEW,0,0.00,WeatherDisplay:10.37,2019-06-24 22:09:33,
2019-06-25 01:14:24,78.7,67.7,29.86,SSW,195,1.5,3.5,69,0,BKN,FEW,0,0.00,WeatherDisplay:10.37,2019-06-24 22:14:24,
2019-06-25 01:19:27,78.6,67.6,29.86,SSW,193,2.2,3.5,69,0,BKN,FEW,0,0.00,WeatherDisplay:10.37,2019-06-24 22:19:27,
2019-06-25 01:24:29,78.5,67.5,29.86,SSW,196,3,4,69,0,BKN,FEW,0,0.00,WeatherDisplay:10.37,2019-06-24 22:24:29,
2019-06-25 01:29:20,78.5,67.5,29.86,SSW,196,2,3.5,69,0,BKN,FEW,0,0.00,WeatherDisplay:10.37,2019-06-24 22:29:20,
2019-06-25 01:34:21,78.4,67,29.85,SSW,193,1.8,3.5,68,0,BKN,FEW,0,0.00,WeatherDisplay:10.37,2019-06-24 22:34:21,
2019-06-25 01:39:23,78.3,66.9,29.86,SSW,193,1.1,2.3,68,0,BKN,FEW,0,0.00,WeatherDisplay:10.37,2019-06-24 22:39:23,
2019-06-25 01:44:26,78.3,66.9,29.86,SSW,193,0.5,2.3,68,0,BKN,FEW,0,0.00,WeatherDisplay:10.37,2019-06-24 22:44:26,
2019-06-25 01:49:31,78.2,66.8,29.86,SSW,193,0,0,68,0,BKN,FEW,0,0.00,WeatherDisplay:10.37,2019-06-24 22:49:31,
2019-06-25 01:54:22,78.1,66.7,29.86,SSW,193,0,0,68,0,BKN,FEW,0,0.00,WeatherDisplay:10.37,2019-06-24 22:54:22,
2019-06-25 01:59:24,78,66.6,29.86,SSW,193,0,0,68,0,BKN,FEW,0,0.00,WeatherDisplay:10.37,2019-06-24 22:59:24,
2019-06-25 02:04:16,77.9,66.9,29.86,SSW,193,0,0,69,0,BKN,FEW,0,0.00,WeatherDisplay:10.37,2019-06-24 23:04:16,
2019-06-25 02:09:18,77.9,66.9,29.85,SSW,193,0,1,69,0,BKN,FEW,0,0.00,WeatherDisplay:10.37,2019-06-24 23:09:18,
2019-06-25 02:14:20,77.8,66.8,29.85,SSW,193,0,1.2,69,0,BKN,FEW,0,0.00,WeatherDisplay:10.37,2019-06-24 23:14:20,
2019-06-25 02:19:22,77.8,66.8,29.85,SSW,193,0,0,69,0,BKN,FEW,0,0.00,WeatherDisplay:10.37,2019-06-24 23:19:22,
2019-06-25 02:24:25,77.8,66.8,29.85,SSW,193,0,0,69,0,BKN,FEW,0,0.00,WeatherDisplay:10.37,2019-06-24 23:24:25,
2019-06-25 02:29:27,77.7,67.1,29.85,SSW,193,0,0,70,0,BKN,FEW,0,0.00,WeatherDisplay:10.37,2019-06-24 23:29:27,
2019-06-25 02:34:18,77.6,67,29.85,SSW,193,0,0,70,0,BKN,FEW,0,0.00,WeatherDisplay:10.37,2019-06-24 23:34:18,
2019-06-25 02:39:20,77.6,67,29.85,SSW,193,0,0,70,0,BKN,FEW,0,0.00,WeatherDisplay:10.37,2019-06-24 23:39:20,
2019-06-25 02:44:22,77.6,66.6,29.85,SSW,194,0,1,69,0,BKN,FEW,0,0.00,WeatherDisplay:10.37,2019-06-24 23:44:22,
2019-06-25 02:49:24,77.6,66.6,29.85,SSW,194,1.1,2.3,69,0,BKN,FEW,0,0.00,WeatherDisplay:10.37,2019-06-24 23:49:24,
2019-06-25 02:54:26,77.5,66.5,29.85,SSW,194,0,0,69,0,BKN,FEW,0,0.00,WeatherDisplay:10.37,2019-06-24 23:54:26,
2019-06-25 02:59:17,77.5,66.5,29.85,SSW,194,0,0,69,0,BKN,FEW,0,0.00,WeatherDisplay:10.37,2019-06-24 23:59:17,
2019-06-25 03:04:21,77.5,66.9,29.85,SSW,194,0,0,70,0,BKN,FEW,0,0.00,WeatherDisplay:10.37,2019-06-25 00:04:21,
2019-06-25 03:09:23,77.4,66.8,29.85,SSW,194,1.8,2.3,70,0,BKN,FEW,0,0.00,WeatherDisplay:10.37,2019-06-25 00:09:23,
2019-06-25 03:14:14,77.4,66.8,29.85,SSW,196,1.6,3.5,70,0,BKN,FEW,0,0.00,WeatherDisplay:10.37,2019-06-25 00:14:14,
2019-06-25 03:19:17,77.4,66.8,29.85,SSW,196,0,2.3,70,0,BKN,FEW,0,0.00,WeatherDisplay:10.37,2019-06-25 00:19:17,
2019-06-25 03:24:19,77.3,66.7,29.85,SSW,196,0,0,70,0,BKN,FEW,0,0.00,WeatherDisplay:10.37,2019-06-25 00:24:19,
2019-06-25 03:29:21,77.2,67.1,29.85,SSW,196,0,0,71,0,BKN,FEW,0,0.00,WeatherDisplay:10.37,2019-06-25 00:29:21,
2019-06-25 03:34:22,77.1,67,29.85,SSW,196,0,0,71,0,BKN,FEW,0,0.00,WeatherDisplay:10.37,2019-06-25 00:34:22,
2019-06-25 03:39:13,76.9,66.8,29.85,SSW,196,0,0,71,0,BKN,FEW,0,0.00,WeatherDisplay:10.37,2019-06-25 00:39:13,
2019-06-25 03:44:15,76.6,66.5,29.85,SE,128,0,0,71,0,BKN,FEW,0,0.00,WeatherDisplay:10.37,2019-06-25 00:44:15,
2019-06-25 03:49:17,76.3,66.6,29.85,ESE,117,1.9,3.5,72,0,BKN,FEW,0,0.00,WeatherDisplay:10.37,2019-06-25 00:49:17,
2019-06-25 03:54:19,76.1,66.8,29.84,ESE,117,1.1,2.3,73,0,BKN,FEW,0,0.00,WeatherDisplay:10.37,2019-06-25 00:54:19,
2019-06-25 03:59:22,76,66.7,29.84,ESE,117,1.5,2.3,73,0,BKN,FEW,0,0.00,WeatherDisplay:10.37,2019-06-25 00:59:22,
2019-06-25 04:04:27,75.7,66.4,29.84,ESE,111,2.6,3.5,73,0,BKN,FEW,0,0.00,WeatherDisplay:10.37,2019-06-25 01:04:27,
2019-06-25 04:09:17,75.5,66.6,29.84,ESE,111,1.8,2.3,74,0,BKN,FEW,0,0.00,WeatherDisplay:10.37,2019-06-25 01:09:17,
2019-06-25 04:14:19,75.5,66.6,29.84,ESE,111,0,0,74,0,BKN,FEW,0,0.00,WeatherDisplay:10.37,2019-06-25 01:14:19,
2019-06-25 04:19:21,75.6,66.7,29.84,ESE,111,0,0,74,0,BKN,FEW,0,0.00,WeatherDisplay:10.37,2019-06-25 01:19:21,
2019-06-25 04:24:51,75.6,66.7,29.84,ESE,111,0,0,74,0,BKN,FEW,0,0.00,WeatherDisplay:10.37,2019-06-25 01:24:51,
2019-06-25 04:29:53,75.6,66.7,29.84,ESE,111,0,0,74,0,BKN,FEW,0,0.00,WeatherDisplay:10.37,2019-06-25 01:29:53,
2019-06-25 04:34:44,75.4,66.9,29.84,ESE,111,1.7,3.5,75,0,BKN,FEW,0,0.00,WeatherDisplay:10.37,2019-06-25 01:34:44,
2019-06-25 04:39:47,75.6,67.1,29.84,ESE,111,1.2,2.3,75,0,BKN,FEW,0,0.00,WeatherDisplay:10.37,2019-06-25 01:39:47,
2019-06-25 04:44:49,75.6,66.7,29.84,ESE,111,1.1,3.5,74,0,BKN,FEW,0,0.00,WeatherDisplay:10.37,2019-06-25 01:44:49,
2019-06-25 04:49:51,75.6,67.1,29.84,NW,315,0.4,3.5,75,0,BKN,FEW,0,0.00,WeatherDisplay:10.37,2019-06-25 01:49:51,
2019-06-25 04:54:53,75.9,67,29.84,NW,317,2.6,3.5,74,0,BKN,FEW,0,0.00,WeatherDisplay:10.37,2019-06-25 01:54:53,
2019-06-25 04:59:44,76,67.1,29.84,NW,318,2.6,3.5,74,0,BKN,FEW,0,0.00,WeatherDisplay:10.37,2019-06-25 01:59:44,
2019-06-25 05:04:49,76.1,67.2,29.84,NW,318,0.1,2.3,74,0,BKN,FEW,0,0.00,WeatherDisplay:10.37,2019-06-25 02:04:49,
2019-06-25 05:09:51,76,67.1,29.84,NW,318,1.5,2.3,74,0,BKN,FEW,0,0.00,WeatherDisplay:10.37,2019-06-25 02:09:51,
2019-06-25 05:14:42,76,67.1,29.84,NW,318,0,0,74,0,BKN,FEW,0,0.00,WeatherDisplay:10.37,2019-06-25 02:14:42,
2019-06-25 05:19:55,76,67.5,29.84,NW,318,1.2,2,75,0,BKN,FEW,0,0.00,WeatherDisplay:10.37,2019-06-25 02:19:55,
2019-06-25 05:24:46,76,67.1,29.84,NW,318,1.3,3,74,0,BKN,FEW,0,0.00,WeatherDisplay:10.37,2019-06-25 02:24:46,
2019-06-25 05:29:48,75.9,66.6,29.84,NW,318,0.9,2.3,73,0,BKN,FEW,0,0.00,WeatherDisplay:10.37,2019-06-25 02:29:48,
2019-06-25 05:34:51,75.7,66.8,29.84,NW,318,2,3.5,74,0,BKN,FEW,0,0.00,WeatherDisplay:10.37,2019-06-25 02:34:51,
2019-06-25 05:39:41,75.5,66.6,29.84,NW,319,1.9,3.5,74,0,BKN,FEW,0,0.00,WeatherDisplay:10.37,2019-06-25 02:39:41,
2019-06-25 05:44:54,75.2,66.7,29.84,NW,319,0,0,75,0,BKN,FEW,0,0.00,WeatherDisplay:10.37,2019-06-25 02:44:54,
2019-06-25 05:49:56,75.1,66.6,29.84,NW,320,2.1,3.5,75,0,BKN,FEW,0,0.00,WeatherDisplay:10.37,2019-06-25 02:49:56,
2019-06-25 05:54:48,75,66.5,29.83,NW,321,1,3.5,75,0,BKN,FEW,0,0.00,WeatherDisplay:10.37,2019-06-25 02:54:48,
2019-06-25 05:59:51,74.8,66.3,29.83,NW,321,0.1,1,75,0,BKN,FEW,0,0.00,WeatherDisplay:10.37,2019-06-25 02:59:51,
2019-06-25 06:04:44,75,66.5,29.84,NW,321,2.3,3.5,75,0,BKN,FEW,0,0.00,WeatherDisplay:10.37,2019-06-25 03:04:44,
2019-06-25 06:09:45,75,66.1,29.84,NW,321,0,0,74,0,BKN,FEW,0,0.00,WeatherDisplay:10.37,2019-06-25 03:09:45,
2019-06-25 06:14:37,75,66.1,29.84,NNW,342,1.7,2.3,74,0,BKN,FEW,0,0.00,WeatherDisplay:10.37,2019-06-25 03:14:37,
2019-06-25 06:19:49,74.9,66.4,29.84,NNW,342,0,0,75,0,BKN,FEW,0,5.00,WeatherDisplay:10.37,2019-06-25 03:19:49,
2019-06-25 06:24:51,74.9,66.4,29.84,NNW,346,1.4,2.3,75,0,BKN,FEW,0,9.00,WeatherDisplay:10.37,2019-06-25 03:24:51,
2019-06-25 06:29:42,75,66.5,29.84,North,351,1.8,3,75,0,BKN,FEW,0,12.00,WeatherDisplay:10.37,2019-06-25 03:29:42,
2019-06-25 06:34:45,75,66.5,29.83,North,351,0,0,75,0,FEW,,0,16.00,WeatherDisplay:10.37,2019-06-25 03:34:45,
2019-06-25 06:39:47,75.1,66.6,29.84,East,96,2.5,3.5,75,0,FEW,,0,19.00,WeatherDisplay:10.37,2019-06-25 03:39:47,
2019-06-25 06:44:49,75.1,66.6,29.84,ESE,119,0.1,1.2,75,0,FEW,,0,25.00,WeatherDisplay:10.37,2019-06-25 03:44:49,
2019-06-25 06:49:44,75.3,66.4,29.84,ESE,120,0,0,74,0,FEW,,0,26.00,WeatherDisplay:10.37,2019-06-25 03:49:44,
2019-06-25 06:54:47,75.4,66.5,29.84,ESE,120,0,0,74,0,FEW,,0,30.00,WeatherDisplay:10.37,2019-06-25 03:54:47,
2019-06-25 06:59:49,75.6,66.7,29.84,ESE,120,1.2,2.3,74,0,FEW,,0,33.00,WeatherDisplay:10.37,2019-06-25 03:59:49,
2019-06-25 07:04:53,75.8,66.5,29.84,ESE,121,0.8,1.2,73,0,FEW,,0,35.00,WeatherDisplay:10.37,2019-06-25 04:04:53,
2019-06-25 07:09:44,76.1,66.8,29.84,ESE,118,1.6,3.5,73,0,FEW,,0,39.00,WeatherDisplay:10.37,2019-06-25 04:09:44,
2019-06-25 07:14:46,76.3,67,29.84,North,360,2,3.5,73,0,FEW,,0,44.00,WeatherDisplay:10.37,2019-06-25 04:14:46,
2019-06-25 07:19:38,76.6,66.9,29.84,WSW,248,3.3,4,72,0,FEW,,0,47.00,WeatherDisplay:10.37,2019-06-25 04:19:38,
2019-06-25 07:24:51,76.6,66.9,29.84,SE,144,3.4,4.6,72,0,FEW,,0,53.00,WeatherDisplay:10.37,2019-06-25 04:24:51,
2019-06-25 07:29:42,76.9,67.2,29.84,SE,132,1.6,3,72,0,FEW,,0,56.00,WeatherDisplay:10.37,2019-06-25 04:29:42,
2019-06-25 07:34:44,77.2,67.1,29.84,SE,131,2.5,3.5,71,0,FEW,,0,62.00,WeatherDisplay:10.37,2019-06-25 04:34:44,
2019-06-25 07:39:45,77.5,67.4,29.84,SE,131,0.3,2.3,71,0,FEW,,0,65.00,WeatherDisplay:10.37,2019-06-25 04:39:45,
2019-06-25 07:44:47,77.6,67,29.84,NW,309,3.8,4.6,70,0,FEW,,0,70.00,WeatherDisplay:10.37,2019-06-25 04:44:47,
2019-06-25 07:49:49,77.7,66.3,29.84,NW,310,1.8,3.5,68,0,FEW,,0,65.00,WeatherDisplay:10.37,2019-06-25 04:49:49,
2019-06-25 07:54:40,78.4,67,29.84,NW,311,0.2,1.2,68,0,FEW,,0,72.00,WeatherDisplay:10.37,2019-06-25 04:54:40,
2019-06-25 07:59:43,79.2,66.9,29.84,NW,304,1.4,2,66,0,FEW,,0,88.00,WeatherDisplay:10.37,2019-06-25 04:59:43,
2019-06-25 08:04:37,79.7,66.9,29.84,NW,306,1.4,3.5,65,0,FEW,,0,111.00,WeatherDisplay:10.37,2019-06-25 05:04:37,
2019-06-25 08:09:39,80.2,66,29.84,ESE,123,3.6,7,62,0,FEW,,0,148.00,WeatherDisplay:10.37,2019-06-25 05:09:39,
2019-06-25 08:14:41,80.4,66.2,29.84,ESE,119,1.8,7,62,0,FEW,,0,186.00,WeatherDisplay:10.37,2019-06-25 05:14:41,
2019-06-25 08:19:43,80.8,65.1,29.85,SE,126,3.6,7,59,0,FEW,,0,216.00,WeatherDisplay:10.37,2019-06-25 05:19:43,
2019-06-25 08:24:46,81.4,66.2,29.85,SE,129,2.2,3.5,60,0,FEW,,0,230.00,WeatherDisplay:10.37,2019-06-25 05:24:46,
2019-06-25 08:29:37,81.7,66.5,29.85,SW,221,2.9,3.5,60,0,FEW,,0,232.00,WeatherDisplay:10.37,2019-06-25 05:29:37,
2019-06-25 08:34:39,81.9,66.6,29.85,West,262,1.8,3.5,60,0,FEW,,0,241.00,WeatherDisplay:10.37,2019-06-25 05:34:39,
2019-06-25 08:39:41,81.9,67.1,29.84,West,263,2.3,4,61,0,FEW,,0,276.00,WeatherDisplay:10.37,2019-06-25 05:39:41,
2019-06-25 08:44:43,82,66.3,29.85,SSE,163,3.3,6.9,59,0,FEW,,0,234.00,WeatherDisplay:10.37,2019-06-25 05:44:43,
2019-06-25 08:49:46,82.3,67,29.85,SSE,155,2.9,4.6,60,0,FEW,,0,79.00,WeatherDisplay:10.37,2019-06-25 05:49:46,
2019-06-25 08:54:37,82.3,67.5,29.85,SSE,155,0,2.3,61,0,FEW,,0,334.00,WeatherDisplay:10.37,2019-06-25 05:54:37,
2019-06-25 08:59:39,82.6,67.3,29.85,SSE,155,0.1,2.3,60,0,FEW,,0,353.00,WeatherDisplay:10.37,2019-06-25 05:59:39,
2019-06-25 09:04:33,83,66.7,29.85,SSE,155,0.9,2.3,58,0,FEW,,0,93.00,WeatherDisplay:10.37,2019-06-25 06:04:33,
2019-06-25 09:09:47,83.1,66.8,29.85,ESE,116,0.7,2.3,58,0,FEW,,0,392.00,WeatherDisplay:10.37,2019-06-25 06:09:47,
2019-06-25 09:14:50,83.7,66.3,29.85,ESE,116,2.1,3.5,56,0,FEW,,0,401.00,WeatherDisplay:10.37,2019-06-25 06:14:50,
2019-06-25 09:19:41,84.3,66.4,29.85,ESE,116,0,0,55,0,FEW,,0,418.00,WeatherDisplay:10.37,2019-06-25 06:19:41,
2019-06-25 09:24:44,84.9,66.4,29.86,ESE,116,2.2,3.5,54,0,FEW,,0,429.00,WeatherDisplay:10.37,2019-06-25 06:24:44,
2019-06-25 09:29:46,85.3,64.6,29.85,SE,134,3.3,4,50,0,FEW,,0,443.00,WeatherDisplay:10.37,2019-06-25 06:29:46,
2019-06-25 09:34:38,86.1,62.3,29.86,East,97,3.7,9.2,45,0,FEW,,0,461.00,WeatherDisplay:10.37,2019-06-25 06:34:38,
2019-06-25 09:39:40,86.7,62.2,29.85,NNE,25,3.6,5,44,0,FEW,,0,471.00,WeatherDisplay:10.37,2019-06-25 06:39:40,
2019-06-25 09:44:43,87,63.7,29.86,SE,126,7.3,9.2,46,0,FEW,,0,485.00,WeatherDisplay:10.37,2019-06-25 06:44:43,
2019-06-25 09:49:46,87.1,63.8,29.86,East,86,4.3,8.1,46,0,FEW,,0,494.00,WeatherDisplay:10.37,2019-06-25 06:49:46,
2019-06-25 09:54:38,87.4,62.8,29.86,NE,46,5.2,10.4,44,0,FEW,,0,512.00,WeatherDisplay:10.37,2019-06-25 06:54:38,
2019-06-25 09:59:39,87.6,63,29.86,NE,45,5.6,9.2,44,0,FEW,,0,524.00,WeatherDisplay:10.37,2019-06-25 06:59:39,
2019-06-25 10:04:31,87.6,62.3,29.86,NW,313,3.1,4.6,43,0,FEW,,0,529.00,WeatherDisplay:10.37,2019-06-25 07:04:31,
2019-06-25 10:09:44,87.8,62.5,29.86,ENE,67,4.7,8.1,43,0,FEW,,0,550.00,WeatherDisplay:10.37,2019-06-25 07:09:44,
2019-06-25 10:14:47,88.1,62.8,29.86,East,101,3.5,4.6,43,0,FEW,,0,557.00,WeatherDisplay:10.37,2019-06-25 07:14:47,
2019-06-25 10:19:38,88.1,62.8,29.86,North,10,3.5,10.4,43,0,FEW,,0,571.00,WeatherDisplay:10.37,2019-06-25 07:19:38,
2019-06-25 10:24:41,88.1,62.1,29.86,NE,48,5,8.1,42,0,FEW,,0,587.00,WeatherDisplay:10.37,2019-06-25 07:24:41,
2019-06-25 10:29:44,88.3,61.6,29.86,ENE,75,4.2,11.5,41,0,FEW,,0,589.00,WeatherDisplay:10.37,2019-06-25 07:29:44,
2019-06-25 10:34:35,88.5,62.5,29.86,ENE,76,6,11.5,42,0,FEW,,0,601.00,WeatherDisplay:10.37,2019-06-25 07:34:35,
2019-06-25 10:39:49,88.7,62,29.86,ENE,58,7.2,11.5,41,0,FEW,,0,617.00,WeatherDisplay:10.37,2019-06-25 07:39:49,
2019-06-25 10:44:41,88.7,61.3,29.87,ESE,105,6.5,8,40,0,FEW,,0,631.00,WeatherDisplay:10.37,2019-06-25 07:44:41,
2019-06-25 10:49:44,88.8,60.7,29.87,ESE,120,4.3,6.9,39,0,FEW,,0,643.00,WeatherDisplay:10.37,2019-06-25 07:49:44,
2019-06-25 10:54:36,88.9,60.7,29.86,ENE,58,9.6,15,39,0,FEW,,0,652.00,WeatherDisplay:10.37,2019-06-25 07:54:36,
2019-06-25 10:59:39,88.7,60.6,29.87,ENE,64,8.2,12.7,39,0,FEW,,0,661.00,WeatherDisplay:10.37,2019-06-25 07:59:39,
2019-06-25 11:04:44,88.7,60.6,29.87,ENE,66,8.7,17.3,39,0,FEW,,0,671.00,WeatherDisplay:10.37,2019-06-25 08:04:44,
2019-06-25 11:09:37,88.9,60.7,29.86,NE,50,5.8,11.5,39,0,FEW,,0,689.00,WeatherDisplay:10.37,2019-06-25 08:09:37,
2019-06-25 11:14:39,89.3,61.1,29.86,SE,126,4.9,8.1,39,0,FEW,,0,691.00,WeatherDisplay:10.37,2019-06-25 08:14:39,
2019-06-25 11:19:41,89.4,61.2,29.86,East,96,8.8,12.7,39,0,FEW,,0,703.00,WeatherDisplay:10.37,2019-06-25 08:19:41,
2019-06-25 11:24:44,89.5,61.3,29.86,ESE,119,6.7,11.5,39,0,FEW,,0,705.00,WeatherDisplay:10.37,2019-06-25 08:24:44,
2019-06-25 11:29:36,89.6,61.4,29.86,ESE,119,5.5,10.4,39,0,FEW,,0,717.00,WeatherDisplay:10.37,2019-06-25 08:29:36,
2019-06-25 11:34:39,89.7,60.7,29.87,SE,130,3.9,8.1,38,0,FEW,,0,724.00,WeatherDisplay:10.37,2019-06-25 08:34:39,
2019-06-25 11:39:42,90.2,61.2,29.87,SE,124,7.7,11.5,38,0,FEW,,0,733.00,WeatherDisplay:10.37,2019-06-25 08:39:42,
2019-06-25 11:44:34,90.1,60.3,29.87,ESE,123,2.8,6.9,37,0,FEW,,0,745.00,WeatherDisplay:10.37,2019-06-25 08:44:34,
2019-06-25 11:49:36,90.2,60.4,29.87,West,265,2.6,6.9,37,0,FEW,,0,747.00,WeatherDisplay:10.37,2019-06-25 08:49:36,
2019-06-25 11:54:39,90.9,60.3,29.87,SE,130,6.8,15,36,0,FEW,,0,756.00,WeatherDisplay:10.37,2019-06-25 08:54:39,
2019-06-25 11:59:42,91,60.3,29.87,ENE,71,2.5,3.5,36,0,FEW,,0,766.00,WeatherDisplay:10.37,2019-06-25 08:59:42,
2019-06-25 12:04:38,91.3,59.8,29.87,East,101,6,9.2,35,0,FEW,,0,773.00,WeatherDisplay:10.37,2019-06-25 09:04:38,
2019-06-25 12:09:40,91.4,60.7,29.87,ESE,118,6,8.1,36,0,FEW,,0,789.00,WeatherDisplay:10.37,2019-06-25 09:09:40,
2019-06-25 12:14:42,91.7,60.2,29.87,ESE,116,3.8,5.8,35,0,FEW,,0,803.00,WeatherDisplay:10.37,2019-06-25 09:14:42,
2019-06-25 12:19:44,91.6,60.1,29.86,ENE,77,4.7,9.2,35,0,FEW,,0,807.00,WeatherDisplay:10.37,2019-06-25 09:19:44,
2019-06-25 12:24:36,91.2,59.7,29.87,ESE,111,5.9,13,35,0,FEW,,0,816.00,WeatherDisplay:10.37,2019-06-25 09:24:36,
2019-06-25 12:29:39,90.8,60.2,29.87,NE,46,6.7,12.7,36,0,FEW,,0,826.00,WeatherDisplay:10.37,2019-06-25 09:29:39,
2019-06-25 12:34:31,90.9,59.5,29.87,SSE,153,12,19.6,35,0,FEW,,0,835.00,WeatherDisplay:10.37,2019-06-25 09:34:31,
2019-06-25 12:39:45,90.5,59.9,29.87,ESE,117,7.1,15,36,0,FEW,,0,856.00,WeatherDisplay:10.37,2019-06-25 09:39:45,
2019-06-25 12:44:47,90.9,60.3,29.88,ESE,111,7.1,15,36,0,FEW,,0,884.00,WeatherDisplay:10.37,2019-06-25 09:44:47,
2019-06-25 12:49:38,90.7,60.8,29.88,SE,137,8,10,37,0,FEW,,0,912.00,WeatherDisplay:10.37,2019-06-25 09:49:38,
2019-06-25 12:54:44,90.1,60.3,29.88,East,94,6.4,10.4,37,0,FEW,,0,202.00,WeatherDisplay:10.37,2019-06-25 09:54:44,
2019-06-25 12:59:36,89.6,59.1,29.88,NNE,28,4.9,9,36,0,FEW,,0,227.00,WeatherDisplay:10.37,2019-06-25 09:59:36,
2019-06-25 13:04:42,89.3,59.6,29.88,WNW,303,5.9,13.8,37,0,FEW,,0,886.00,WeatherDisplay:10.37,2019-06-25 10:04:42,
2019-06-25 13:09:44,89.3,59.6,29.88,SSE,161,5.9,11.5,37,0,FEW,,0,183.00,WeatherDisplay:10.37,2019-06-25 10:09:44,
2019-06-25 13:14:37,89.3,59.6,29.88,NE,52,8.2,15,37,0,FEW,,0,165.00,WeatherDisplay:10.37,2019-06-25 10:14:37,
2019-06-25 13:19:40,89.3,59.6,29.87,NNE,15,7,11.5,37,0,FEW,,0,884.00,WeatherDisplay:10.37,2019-06-25 10:19:40,
2019-06-25 13:24:32,89.6,59.1,29.87,NNE,25,9.2,16.1,36,0,FEW,,0,281.00,WeatherDisplay:10.37,2019-06-25 10:24:32,
2019-06-25 13:29:35,89.6,59.9,29.87,NNE,22,8.6,17.3,37,0,FEW,,0,248.00,WeatherDisplay:10.37,2019-06-25 10:29:35,
2019-06-25 13:34:37,90.2,59.6,29.88,ESE,111,2.6,9.2,36,0,FEW,,0,165.00,WeatherDisplay:10.37,2019-06-25 10:34:37,
2019-06-25 13:39:39,90.5,58.3,29.88,ENE,67,2.7,4,34,0,FEW,,0,868.00,WeatherDisplay:10.37,2019-06-25 10:39:39,
2019-06-25 13:44:42,91,59.5,29.88,NE,55,7.4,10.4,35,0,FEW,,0,847.00,WeatherDisplay:10.37,2019-06-25 10:44:42,
2019-06-25 13:49:34,91.3,60.6,29.88,East,92,6.1,11.5,36,0,FEW,,0,882.00,WeatherDisplay:10.37,2019-06-25 10:49:34,
2019-06-25 13:54:44,91.3,59.8,29.88,ENE,62,6.6,9.2,35,0,FEW,,0,865.00,WeatherDisplay:10.37,2019-06-25 10:54:44,
2019-06-25 13:59:30,91.4,60.7,29.89,North,360,9.6,18,36,0,FEW,,0,849.00,WeatherDisplay:10.37,2019-06-25 10:59:30,
2019-06-25 14:04:37,91.1,58.8,29.89,NNW,346,8.2,17.3,34,0,FEW,,0,844.00,WeatherDisplay:10.37,2019-06-25 11:04:37,
2019-06-25 14:09:40,90.9,59.5,29.89,ENE,66,9.1,14,35,0,FEW,,0,844.00,WeatherDisplay:10.37,2019-06-25 11:09:40,
2019-06-25 14:14:32,90.9,60.3,29.89,ESE,103,3.7,4.6,36,0,FEW,,0,867.00,WeatherDisplay:10.37,2019-06-25 11:14:32,
2019-06-25 14:19:35,90.9,59.5,29.89,ESE,103,7.1,16.1,35,0,FEW,,0,867.00,WeatherDisplay:10.37,2019-06-25 11:19:35,
2019-06-25 14:24:38,90.7,59.3,29.89,NE,35,6.7,9,35,0,FEW,,0,851.00,WeatherDisplay:10.37,2019-06-25 11:24:38,
2019-06-25 14:29:41,90.8,60.2,29.89,ENE,66,8.4,10.4,36,0,FEW,,0,838.00,WeatherDisplay:10.37,2019-06-25 11:29:41,
2019-06-25 14:34:33,91.1,59.6,29.89,ENE,74,4.8,9,35,0,FEW,,0,835.00,WeatherDisplay:10.37,2019-06-25 11:34:33,
2019-06-25 14:39:35,91.2,59.7,29.89,NNE,25,11.4,12,35,0,FEW,,0,826.00,WeatherDisplay:10.37,2019-06-25 11:39:35,
2019-06-25 14:44:39,91.5,60,29.89,NNE,30,7.7,19.6,35,0,FEW,,0,824.00,WeatherDisplay:10.37,2019-06-25 11:44:39,
2019-06-25 14:49:42,91.4,59.9,29.89,East,85,6.4,15,35,0,FEW,,0,816.00,WeatherDisplay:10.37,2019-06-25 11:49:42,
2019-06-25 14:54:34,91.8,60.3,29.89,NE,51,6.7,11.5,35,0,FEW,,0,810.00,WeatherDisplay:10.37,2019-06-25 11:54:34,
2019-06-25 14:59:37,91.7,60.2,29.89,NE,50,6.2,11.5,35,0,FEW,,0,810.00,WeatherDisplay:10.37,2019-06-25 11:59:37,
2019-06-25 15:04:30,92,60.4,29.89,NNE,26,6.2,10,35,0,FEW,,0,812.00,WeatherDisplay:10.37,2019-06-25 12:04:30,
2019-06-25 15:09:33,91.6,60.1,29.89,NE,51,6.3,16.1,35,0,FEW,,0,789.00,WeatherDisplay:10.37,2019-06-25 12:09:33,
2019-06-25 15:14:36,91.6,60.9,29.89,NNE,14,5.2,6.9,36,0,FEW,,0,795.00,WeatherDisplay:10.37,2019-06-25 12:14:36,
2019-06-25 15:19:39,91.8,59.4,29.88,NE,36,6,10.4,34,0,FEW,,0,788.00,WeatherDisplay:10.37,2019-06-25 12:19:39,
2019-06-25 15:24:41,91.8,61,29.88,NNW,327,2.6,9.2,36,0,FEW,,0,775.00,WeatherDisplay:10.37,2019-06-25 12:24:41,
2019-06-25 15:29:33,92.1,59.7,29.89,North,5,9.8,15,34,0,FEW,,0,768.00,WeatherDisplay:10.37,2019-06-25 12:29:33,
2019-06-25 15:34:35,91.8,60.3,29.89,ENE,76,7.7,12.7,35,0,FEW,,0,765.00,WeatherDisplay:10.37,2019-06-25 12:34:35,
2019-06-25 15:39:38,91.9,60.3,29.89,NNE,32,8.4,12.7,35,0,FEW,,0,751.00,WeatherDisplay:10.37,2019-06-25 12:39:38,
2019-06-25 15:44:30,91.8,61,29.89,NNE,15,9.4,17,36,0,FEW,,0,733.00,WeatherDisplay:10.37,2019-06-25 12:44:30,
2019-06-25 15:49:33,91.8,60.3,29.89,ENE,74,7.8,11.5,35,0,FEW,,0,737.00,WeatherDisplay:10.37,2019-06-25 12:49:33,
2019-06-25 15:54:36,91.9,60.3,29.89,East,80,9.5,12.7,35,0,FEW,,0,738.00,WeatherDisplay:10.37,2019-06-25 12:54:36,
2019-06-25 15:59:41,91.8,60.3,29.89,NNW,327,6.4,11.5,35,0,FEW,,0,726.00,WeatherDisplay:10.37,2019-06-25 12:59:41,
2019-06-25 16:04:36,92.1,60.5,29.89,NNE,32,4.3,6.9,35,0,FEW,,0,719.00,WeatherDisplay:10.37,2019-06-25 13:04:36,
2019-06-25 16:09:39,92.6,60.1,29.89,ENE,57,7.7,13.8,34,0,FEW,,0,714.00,WeatherDisplay:10.37,2019-06-25 13:09:39,
2019-06-25 16:14:41,92.5,60,29.88,NW,304,9.5,10.4,34,0,FEW,,0,715.00,WeatherDisplay:10.37,2019-06-25 13:14:41,
2019-06-25 16:19:33,92.4,60,29.89,NNE,22,9.6,13.8,34,0,FEW,,0,710.00,WeatherDisplay:10.37,2019-06-25 13:19:33,
2019-06-25 16:24:37,92.5,60,29.88,ENE,62,4.5,11.5,34,0,FEW,,0,703.00,WeatherDisplay:10.37,2019-06-25 13:24:37,
2019-06-25 16:29:28,92.8,59.5,29.89,North,360,8.7,15,33,0,FEW,,0,703.00,WeatherDisplay:10.37,2019-06-25 13:29:28,
2019-06-25 16:34:31,92.7,60.2,29.88,North,355,7.9,14,34,0,FEW,,0,698.00,WeatherDisplay:10.37,2019-06-25 13:34:31,
2019-06-25 16:39:34,92.8,60.3,29.89,ENE,63,8,11,34,0,FEW,,0,703.00,WeatherDisplay:10.37,2019-06-25 13:39:34,
2019-06-25 16:44:37,92.6,59.3,29.89,East,84,9.7,16.1,33,0,FEW,,0,696.00,WeatherDisplay:10.37,2019-06-25 13:44:37,
2019-06-25 16:49:40,92.3,59.9,29.89,ENE,64,10.5,17,34,0,FEW,,0,687.00,WeatherDisplay:10.37,2019-06-25 13:49:40,
2019-06-25 16:54:33,91.9,59.5,29.89,ENE,71,10.7,19.6,34,0,FEW,,0,696.00,WeatherDisplay:10.37,2019-06-25 13:54:33,
2019-06-25 16:59:36,91.9,60.3,29.89,ENE,73,6.4,13,35,0,FEW,,0,680.00,WeatherDisplay:10.37,2019-06-25 13:59:36,
2019-06-25 17:04:42,91.9,60.3,29.89,SE,134,8,12.7,35,0,FEW,,0,656.00,WeatherDisplay:10.37,2019-06-25 14:04:42,
2019-06-25 17:09:34,92,60.4,29.89,ESE,117,10.6,13.8,35,0,FEW,,0,661.00,WeatherDisplay:10.37,2019-06-25 14:09:34,
2019-06-25 17:14:38,91.8,60.3,29.89,NE,52,8.9,13.8,35,0,FEW,,0,645.00,WeatherDisplay:10.37,2019-06-25 14:14:38,
2019-06-25 17:19:29,91.8,60.3,29.89,ESE,108,8.3,11.5,35,0,FEW,,0,575.00,WeatherDisplay:10.37,2019-06-25 14:19:29,
2019-06-25 17:24:43,91.8,60.3,29.89,East,101,7.3,11.5,35,0,FEW,,0,599.00,WeatherDisplay:10.37,2019-06-25 14:24:43,
2019-06-25 17:29:35,91.7,60.2,29.88,SSE,155,5.8,11.5,35,0,FEW,,0,580.00,WeatherDisplay:10.37,2019-06-25 14:29:35,
2019-06-25 17:34:38,91.6,60.1,29.89,ESE,121,9.4,14,35,0,FEW,,0,570.00,WeatherDisplay:10.37,2019-06-25 14:34:38,
2019-06-25 17:39:42,91.6,59.3,29.89,ESE,111,10.3,17.3,34,0,FEW,,0,545.00,WeatherDisplay:10.37,2019-06-25 14:39:42,
2019-06-25 17:44:34,91.5,60,29.89,ENE,70,8.1,17,35,0,FEW,,0,529.00,WeatherDisplay:10.37,2019-06-25 14:44:34,
2019-06-25 17:49:26,91.7,60.2,29.89,ENE,65,5.6,12.7,35,0,FEW,,0,515.00,WeatherDisplay:10.37,2019-06-25 14:49:26,
2019-06-25 17:54:29,91.6,59.3,29.89,NE,34,9.4,16.1,34,0,FEW,,0,476.00,WeatherDisplay:10.37,2019-06-25 14:54:29,
2019-06-25 17:59:36,91.7,60.2,29.89,ENE,65,10.6,12,35,0,FEW,,0,446.00,WeatherDisplay:10.37,2019-06-25 14:59:36,
2019-06-25 18:04:31,91.5,60,29.88,NE,53,14.1,20.7,35,0,FEW,,0,436.00,WeatherDisplay:10.37,2019-06-25 15:04:31,
2019-06-25 18:09:34,91.3,59.8,29.88,ESE,103,9.8,17.3,35,0,FEW,,0,418.00,WeatherDisplay:10.37,2019-06-25 15:09:34,
2019-06-25 18:14:26,91.5,60,29.88,ENE,59,7.1,10.4,35,0,FEW,,0,396.00,WeatherDisplay:10.37,2019-06-25 15:14:26,
2019-06-25 18:19:29,91.8,59.4,29.89,ENE,75,7.5,11.5,34,0,FEW,,0,362.00,WeatherDisplay:10.37,2019-06-25 15:19:29,
2019-06-25 18:24:33,91.5,60,29.89,SE,146,7.7,12.7,35,0,FEW,,0,362.00,WeatherDisplay:10.37,2019-06-25 15:24:33,
2019-06-25 18:29:25,91.3,59.8,29.88,SE,130,10.5,20.7,35,0,FEW,,0,330.00,WeatherDisplay:10.37,2019-06-25 15:29:25,
2019-06-25 18:34:29,91.2,59.7,29.88,ESE,109,4.1,8.1,35,0,FEW,,0,330.00,WeatherDisplay:10.37,2019-06-25 15:34:29,
2019-06-25 18:39:43,91.3,59,29.88,ENE,75,11.4,13.8,34,0,FEW,,0,308.00,WeatherDisplay:10.37,2019-06-25 15:39:43,
2019-06-25 18:44:35,91.1,59.6,29.89,ENE,58,8.2,11.5,35,0,FEW,,0,299.00,WeatherDisplay:10.37,2019-06-25 15:44:35,
2019-06-25 18:49:38,91.1,58.8,29.88,NNE,32,10.1,15,34,0,FEW,,0,283.00,WeatherDisplay:10.37,2019-06-25 15:49:38,
2019-06-25 18:54:41,91.2,58.9,29.89,East,88,6.7,11.5,34,0,FEW,,0,267.00,WeatherDisplay:10.37,2019-06-25 15:54:41,
2019-06-25 18:59:35,91.4,59.1,29.89,ENE,59,5.1,8.1,34,0,FEW,,0,253.00,WeatherDisplay:10.37,2019-06-25 15:59:35,
2019-06-25 19:04:30,91.4,59.1,29.89,East,80,7.4,12,34,0,FEW,,0,246.00,WeatherDisplay:10.37,2019-06-25 16:04:30,
2019-06-25 19:09:33,91.2,58.9,29.89,SE,127,5.6,11.5,34,0,FEW,,0,230.00,WeatherDisplay:10.37,2019-06-25 16:09:33,
2019-06-25 19:14:26,91.1,58.8,29.89,ESE,111,4.9,9.2,34,0,FEW,,0,216.00,WeatherDisplay:10.37,2019-06-25 16:14:26,
2019-06-25 19:19:29,91.1,58.8,29.89,ENE,69,4.8,6.9,34,0,FEW,,0,202.00,WeatherDisplay:10.37,2019-06-25 16:19:29,
2019-06-25 19:24:42,91.2,58.9,29.89,East,98,5.4,10,34,0,FEW,,0,188.00,WeatherDisplay:10.37,2019-06-25 16:24:42,
2019-06-25 19:29:33,91.2,58.9,29.89,SE,127,7,11.5,34,0,FEW,,0,174.00,WeatherDisplay:10.37,2019-06-25 16:29:33,
2019-06-25 19:34:36,91,59.5,29.89,East,86,3.9,7,35,0,FEW,,0,160.00,WeatherDisplay:10.37,2019-06-25 16:34:36,
2019-06-25 19:39:27,90.8,59.4,29.89,NNE,25,7.3,10.4,35,0,FEW,,0,146.00,WeatherDisplay:10.37,2019-06-25 16:39:27,
2019-06-25 19:44:30,90.4,59,29.90,East,92,8,11,35,0,FEW,,0,134.00,WeatherDisplay:10.37,2019-06-25 16:44:30,
2019-06-25 19:49:33,90.3,58.9,29.90,NE,41,4.5,6.9,35,0,FEW,,0,118.00,WeatherDisplay:10.37,2019-06-25 16:49:33,
2019-06-25 19:54:24,90.3,58.9,29.90,ENE,67,7.9,11.5,35,0,FEW,,0,104.00,WeatherDisplay:10.37,2019-06-25 16:54:24,
2019-06-25 19:59:27,90.2,58.8,29.89,NNW,335,7,11.5,35,0,FEW,,0,90.00,WeatherDisplay:10.37,2019-06-25 16:59:27,
2019-06-25 20:04:31,90,57.9,29.90,ENE,76,10.6,15,34,0,FEW,,0,76.00,WeatherDisplay:10.37,2019-06-25 17:04:31,
2019-06-25 20:09:34,89.9,58.6,29.90,ESE,121,7,10.4,35,0,FEW,,0,65.00,WeatherDisplay:10.37,2019-06-25 17:09:34,
2019-06-25 20:14:37,89.5,59,29.90,East,91,5.3,11.5,36,0,FEW,,0,53.00,WeatherDisplay:10.37,2019-06-25 17:14:37,
2019-06-25 20:19:29,89.1,58.7,29.90,ENE,59,9.1,15,36,0,FEW,,0,46.00,WeatherDisplay:10.37,2019-06-25 17:19:29,
2019-06-25 20:24:32,88.8,59.2,29.90,East,86,8.2,17.3,37,0,FEW,,0,37.00,WeatherDisplay:10.37,2019-06-25 17:24:32,
2019-06-25 20:29:24,88.7,58.3,29.90,ESE,120,10.2,13.8,36,0,FEW,,0,28.00,WeatherDisplay:10.37,2019-06-25 17:29:24,
2019-06-25 20:34:26,88.7,58.3,29.91,SE,125,6.5,13.8,36,0,FEW,,0,23.00,WeatherDisplay:10.37,2019-06-25 17:34:26,
2019-06-25 20:39:29,88.5,58.9,29.91,SE,126,7.8,12.7,37,0,FEW,,0,16.00,WeatherDisplay:10.37,2019-06-25 17:39:29,
2019-06-25 20:44:22,88.4,58.1,29.91,ESE,105,10.6,13.8,36,0,FEW,,0,12.00,WeatherDisplay:10.37,2019-06-25 17:44:22,
2019-06-25 20:49:36,88.3,58,29.90,ESE,117,3,6.9,36,0,FEW,,0,9.00,WeatherDisplay:10.37,2019-06-25 17:49:36,
2019-06-25 20:54:39,88.4,56.5,29.91,ESE,118,4.6,10.4,34,0,FEW,,0,5.00,WeatherDisplay:10.37,2019-06-25 17:54:39,
2019-06-25 20:59:30,88.6,57.4,29.91,ESE,111,4.5,6.9,35,0,FEW,,0,0.00,WeatherDisplay:10.37,2019-06-25 17:59:30,
2019-06-25 21:04:36,88.3,57.2,29.91,SE,129,7.6,11.5,35,0,FEW,,0,0.00,WeatherDisplay:10.37,2019-06-25 18:04:36,
2019-06-25 21:09:28,88,57.7,29.91,ESE,119,7.1,13.8,36,0,FEW,,0,0.00,WeatherDisplay:10.37,2019-06-25 18:09:28,
2019-06-25 21:14:31,87.8,56.7,29.92,ENE,68,7.1,16.1,35,0,FEW,,0,0.00,WeatherDisplay:10.37,2019-06-25 18:14:31,
2019-06-25 21:19:23,87.6,57.3,29.91,NNE,27,5.2,14,36,0,FEW,,0,0.00,WeatherDisplay:10.37,2019-06-25 18:19:23,
2019-06-25 21:24:26,87.6,55.8,29.92,East,94,8.5,15,34,0,FEW,,0,0.00,WeatherDisplay:10.37,2019-06-25 18:24:26,
2019-06-25 21:29:29,87.7,55.9,29.92,ESE,103,6.7,10,34,0,FEW,,0,0.00,WeatherDisplay:10.37,2019-06-25 18:29:29,
2019-06-25 21:34:21,87.6,56.6,29.92,ENE,78,10.2,15,35,0,FEW,,0,0.00,WeatherDisplay:10.37,2019-06-25 18:34:21,
2019-06-25 21:39:35,87.4,55.6,29.92,ENE,66,7.6,16,34,0,FEW,,0,0.00,WeatherDisplay:10.37,2019-06-25 18:39:35,
2019-06-25 21:44:38,87.5,55.7,29.93,ENE,70,3.3,9.2,34,0,FEW,,0,0.00,WeatherDisplay:10.37,2019-06-25 18:44:38,
2019-06-25 21:49:30,87.5,56.5,29.93,ENE,61,9.2,16.1,35,0,FEW,,0,0.00,WeatherDisplay:10.37,2019-06-25 18:49:30,
2019-06-25 21:54:33,87.3,56.3,29.93,East,86,6,12,35,0,FEW,,0,0.00,WeatherDisplay:10.37,2019-06-25 18:54:33,
2019-06-25 21:59:25,87.4,55.6,29.93,East,86,6.9,11.5,34,0,FEW,,0,0.00,WeatherDisplay:10.37,2019-06-25 18:59:25,
2019-06-25 22:04:33,87.5,56.5,29.93,NE,46,7.6,11.5,35,0,FEW,,0,0.00,WeatherDisplay:10.37,2019-06-25 19:04:33,
2019-06-25 22:09:36,87.1,56.9,29.93,ENE,75,4.7,8,36,0,FEW,,0,0.00,WeatherDisplay:10.37,2019-06-25 19:09:36,
2019-06-25 22:14:29,86.8,56.6,29.94,ESE,114,7.1,12.7,36,0,FEW,,0,0.00,WeatherDisplay:10.37,2019-06-25 19:14:29,
2019-06-25 22:19:30,86.8,56.6,29.94,NE,53,5.7,10.4,36,0,FEW,,0,0.00,WeatherDisplay:10.37,2019-06-25 19:19:30,
2019-06-25 22:24:22,86.8,56.6,29.94,East,101,8.4,13.8,36,0,FEW,,0,0.00,WeatherDisplay:10.37,2019-06-25 19:24:22,
2019-06-25 22:29:37,86.8,56.6,29.94,NNE,12,7.5,16.1,36,0,FEW,,0,0.00,WeatherDisplay:10.37,2019-06-25 19:29:37,
2019-06-25 22:34:29,86.8,56.6,29.94,ENE,76,7.6,12.7,36,0,FEW,,0,0.00,WeatherDisplay:10.37,2019-06-25 19:34:29,
2019-06-25 22:39:32,86.9,56.7,29.94,ESE,121,7,13,36,0,FEW,,0,0.00,WeatherDisplay:10.37,2019-06-25 19:39:32,
2019-06-25 22:44:24,86.8,56.6,29.94,North,351,9.4,16.1,36,0,FEW,,0,0.00,WeatherDisplay:10.37,2019-06-25 19:44:24,
2019-06-25 22:49:27,86.9,56.7,29.94,NE,39,4.7,11.5,36,0,FEW,,0,0.00,WeatherDisplay:10.37,2019-06-25 19:49:27,
2019-06-25 22:54:30,86.9,56.7,29.94,ESE,122,11.3,17.3,36,0,FEW,,0,0.00,WeatherDisplay:10.37,2019-06-25 19:54:30,
2019-06-25 22:57:49,86.9,57.5,29.94,SE,132,7.3,11.5,37,0,FEW,,0,0.00,WeatherDisplay:10.37,2019-06-25 19:57:49,